createdAt,value
2022-12-11T00:01:17.944Z,-1.23
2022-12-11T00:03:49.815Z,-1.23
2022-12-11T00:06:21.854Z,-1.23
2022-12-11T00:08:53.604Z,-1.21
2022-12-11T00:11:24.453Z,-1.17
2022-12-11T00:13:53.645Z,-1.19
2022-12-11T00:16:26.868Z,-1.20
2022-12-11T00:18:57.604Z,-1.20
2022-12-11T00:21:27.262Z,-1.22
2022-12-11T00:23:56.342Z,-1.25
2022-12-11T00:26:25.270Z,-1.23
2022-12-11T00:28:57.151Z,-1.19
2022-12-11T00:31:26.357Z,-1.20
2022-12-11T00:33:55.286Z,-1.18
2022-12-11T00:36:27.269Z,-1.18
2022-12-11T00:38:56.503Z,-1.19
2022-12-11T00:41:25.733Z,-1.16
2022-12-11T00:43:54.754Z,-1.17
2022-12-11T00:46:23.842Z,-1.16
2022-12-11T00:48:53.664Z,-1.16
2022-12-11T00:51:22.893Z,-1.16
2022-12-11T00:53:53.693Z,-1.15
2022-12-11T00:56:25.407Z,-1.16
2022-12-11T00:58:54.399Z,-1.15
2022-12-11T01:01:25.315Z,-1.16
2022-12-11T01:03:54.950Z,-1.16
2022-12-11T01:06:25.805Z,-1.18
2022-12-11T01:09:11.245Z,-1.17
2022-12-11T01:11:40.763Z,-1.15
2022-12-11T01:14:10.846Z,-1.15
2022-12-11T01:16:39.936Z,-1.14
2022-12-11T01:19:09.210Z,-1.14
2022-12-11T01:21:38.321Z,-1.14
2022-12-11T01:24:08.804Z,-1.15
2022-12-11T01:26:37.697Z,-1.16
2022-12-11T01:29:06.666Z,-1.14
2022-12-11T01:31:35.627Z,-1.14
2022-12-11T01:34:04.606Z,-1.16
2022-12-11T01:36:33.605Z,-1.15
2022-12-11T01:39:02.640Z,-1.14
2022-12-11T01:41:33.146Z,-1.14
2022-12-11T01:44:05.212Z,-1.13
2022-12-11T01:46:36.233Z,-1.14
2022-12-11T01:49:08.807Z,-1.13
2022-12-11T01:51:41.697Z,-1.13
2022-12-11T01:54:13.442Z,-1.14
2022-12-11T01:56:46.355Z,-1.14
2022-12-11T01:59:19.055Z,-1.17
2022-12-11T02:01:51.744Z,-1.16
2022-12-11T02:04:21.787Z,-1.14
2022-12-11T02:06:52.052Z,-1.14
2022-12-11T02:09:23.517Z,-1.14
2022-12-11T02:12:02.707Z,-1.15
2022-12-11T02:14:40.612Z,-1.15
2022-12-11T02:17:15.535Z,-1.15
2022-12-11T02:20:00.521Z,-1.15
2022-12-11T02:22:47.683Z,-1.14
2022-12-11T02:25:23.042Z,-1.13
2022-12-11T02:27:56.796Z,-1.13
2022-12-11T02:30:27.549Z,-1.14
2022-12-11T02:32:58.105Z,-1.14
2022-12-11T02:35:32.373Z,-1.14
2022-12-11T02:38:06.766Z,-1.14
2022-12-11T02:40:39.902Z,-1.14
2022-12-11T02:43:14.757Z,-1.14
2022-12-11T02:45:48.043Z,-1.14
2022-12-11T02:48:19.066Z,-1.12
2022-12-11T02:50:51.782Z,-1.12
2022-12-11T02:53:25.620Z,-1.14
2022-12-11T02:56:03.347Z,-1.13
2022-12-11T02:58:34.487Z,-1.11
2022-12-11T03:01:05.012Z,-1.12
2022-12-11T03:03:34.060Z,-1.13
2022-12-11T03:06:04.055Z,-1.11
2022-12-11T03:08:33.937Z,-1.11
2022-12-11T03:11:02.926Z,-1.11
2022-12-11T03:13:31.878Z,-1.10
2022-12-11T03:16:13.260Z,-1.13
2022-12-11T03:18:51.347Z,-1.15
2022-12-11T03:21:25.355Z,-1.14
2022-12-11T03:24:03.731Z,-1.14
2022-12-11T03:26:36.867Z,-1.17
2022-12-11T03:29:11.553Z,-1.16
2022-12-11T03:31:47.347Z,-1.17
2022-12-11T03:34:21.008Z,-1.17
2022-12-11T03:36:53.347Z,-1.16
2022-12-11T03:39:27.989Z,-1.15
2022-12-11T03:41:58.492Z,-1.14
2022-12-11T03:44:30.209Z,-1.15
2022-12-11T03:47:03.102Z,-1.19
2022-12-11T03:49:38.299Z,-1.16
2022-12-11T03:52:08.855Z,-1.17
2022-12-11T03:54:39.439Z,-1.18
2022-12-11T03:57:12.190Z,-1.18
2022-12-11T03:59:41.433Z,-1.21
2022-12-11T04:02:11.949Z,-1.24
2022-12-11T04:04:42.841Z,-1.19
2022-12-11T04:07:12.030Z,-1.16
2022-12-11T04:09:40.947Z,-1.18
2022-12-11T04:12:10.007Z,-1.18
2022-12-11T04:14:56.285Z,-1.22
2022-12-11T04:17:44.174Z,-1.19
2022-12-11T04:20:30.859Z,-1.19
2022-12-11T04:23:17.170Z,-1.23
2022-12-11T04:25:46.427Z,-1.19
2022-12-11T04:28:15.517Z,-1.20
2022-12-11T04:30:49.799Z,-1.20
2022-12-11T04:33:20.171Z,-1.21
2022-12-11T04:35:49.159Z,-1.21
2022-12-11T04:38:21.844Z,-1.23
2022-12-11T04:40:50.785Z,-1.21
2022-12-11T04:43:19.728Z,-1.26
2022-12-11T04:45:48.631Z,-1.27
2022-12-11T04:48:17.521Z,-1.26
2022-12-11T04:50:47.995Z,-1.29
2022-12-11T04:53:17.122Z,-1.32
2022-12-11T04:55:46.064Z,-1.34
2022-12-11T04:58:15.070Z,-1.34
2022-12-11T05:00:44.350Z,-1.30
2022-12-11T05:03:13.653Z,-1.30
2022-12-11T05:05:42.743Z,-1.29
2022-12-11T05:08:13.103Z,-1.31
2022-12-11T05:10:47.105Z,-1.32
2022-12-11T05:13:18.895Z,-1.34
2022-12-11T05:15:47.957Z,-1.37
2022-12-11T05:18:17.061Z,-1.35
2022-12-11T05:20:46.069Z,-1.33
2022-12-11T05:23:16.514Z,-1.32
2022-12-11T05:25:52.371Z,-1.34
2022-12-11T05:28:21.492Z,-1.34
2022-12-11T05:30:50.733Z,-1.32
2022-12-11T05:33:19.865Z,-1.38
2022-12-11T05:35:49.253Z,-1.39
2022-12-11T05:38:19.757Z,-1.40
2022-12-11T05:40:58.415Z,-1.41
2022-12-11T05:43:33.860Z,-1.37
2022-12-11T05:46:09.968Z,-1.37
2022-12-11T05:48:39.862Z,-1.38
2022-12-11T05:51:09.588Z,-1.40
2022-12-11T05:53:41.053Z,-1.44
2022-12-11T05:56:12.757Z,-1.41
2022-12-11T05:58:42.754Z,-1.40
2022-12-11T06:01:14.922Z,-1.40
2022-12-11T06:03:44.817Z,-1.39
2022-12-11T06:06:14.152Z,-1.38
2022-12-11T06:08:44.730Z,-1.36
2022-12-11T06:11:18.372Z,-1.36
2022-12-11T06:13:50.482Z,-1.35
2022-12-11T06:16:19.569Z,-1.40
2022-12-11T06:18:49.184Z,-1.39
2022-12-11T06:21:20.752Z,-1.37
2022-12-11T06:23:52.183Z,-1.38
2022-12-11T06:26:22.204Z,-1.39
2022-12-11T06:28:51.968Z,-1.41
2022-12-11T06:31:21.768Z,-1.45
2022-12-11T06:33:51.714Z,-1.44
2022-12-11T06:36:23.584Z,-1.44
2022-12-11T06:38:54.504Z,-1.45
2022-12-11T06:41:23.553Z,-1.41
2022-12-11T06:43:52.612Z,-1.42
2022-12-11T06:46:22.193Z,-1.44
2022-12-11T06:48:51.704Z,-1.41
2022-12-11T06:51:22.954Z,-1.38
2022-12-11T06:53:54.916Z,-1.41
2022-12-11T06:56:25.409Z,-1.42
2022-12-11T06:58:55.543Z,-1.41
2022-12-11T07:01:26.322Z,-1.47
2022-12-11T07:03:56.835Z,-1.46
2022-12-11T07:06:27.592Z,-1.44
2022-12-11T07:08:58.191Z,-1.43
2022-12-11T07:11:27.149Z,-1.41
2022-12-11T07:13:56.114Z,-1.39
2022-12-11T07:16:25.224Z,-1.39
2022-12-11T07:18:54.525Z,-1.38
2022-12-11T07:21:23.566Z,-1.36
2022-12-11T07:23:52.517Z,-1.38
2022-12-11T07:26:23.712Z,-1.38
2022-12-11T07:28:52.844Z,-1.41
2022-12-11T07:31:23.785Z,-1.40
2022-12-11T07:33:56.798Z,-1.40
2022-12-11T07:36:27.731Z,-1.40
2022-12-11T07:38:57.514Z,-1.37
2022-12-11T07:41:28.955Z,-1.44
2022-12-11T07:43:58.185Z,-1.44
2022-12-11T07:46:29.371Z,-1.40
2022-12-11T07:48:58.617Z,-1.39
2022-12-11T07:51:32.205Z,-1.44
2022-12-11T07:54:02.879Z,-1.47
2022-12-11T07:56:33.869Z,-1.44
2022-12-11T07:59:04.153Z,-1.46
2022-12-11T08:01:36.577Z,-1.50
2022-12-11T08:04:07.626Z,-1.52
2022-12-11T08:06:39.495Z,-1.51
2022-12-11T08:09:17.305Z,-1.52
2022-12-11T08:11:51.718Z,-1.53
2022-12-11T08:14:21.375Z,-1.50
2022-12-11T08:16:50.890Z,-1.48
2022-12-11T08:19:20.147Z,-1.44
2022-12-11T08:21:49.095Z,-1.47
2022-12-11T08:24:20.821Z,-1.44
2022-12-11T08:26:51.321Z,-1.45
2022-12-11T08:29:20.520Z,-1.54
2022-12-11T08:31:50.387Z,-1.51
2022-12-11T08:34:19.665Z,-1.56
2022-12-11T08:36:48.814Z,-1.53
2022-12-11T08:39:20.805Z,-1.54
2022-12-11T08:41:51.279Z,-1.51
2022-12-11T08:44:20.251Z,-1.54
2022-12-11T08:46:49.391Z,-1.54
2022-12-11T08:49:18.412Z,-1.55
2022-12-11T08:51:49.749Z,-1.55
2022-12-11T08:54:19.031Z,-1.51
2022-12-11T08:56:48.020Z,-1.52
2022-12-11T08:59:19.115Z,-1.53
2022-12-11T09:01:48.176Z,-1.50
2022-12-11T09:04:17.312Z,-1.45
2022-12-11T09:06:46.507Z,-1.44
2022-12-11T09:09:15.961Z,-1.41
2022-12-11T09:11:44.973Z,-1.38
2022-12-11T09:14:14.018Z,-1.40
2022-12-11T09:16:44.606Z,-1.41
2022-12-11T09:19:15.329Z,-1.42
2022-12-11T09:21:45.874Z,-1.44
2022-12-11T09:24:15.697Z,-1.43
2022-12-11T09:26:44.739Z,-1.46
2022-12-11T09:29:14.185Z,-1.48
2022-12-11T09:31:46.819Z,-1.50
2022-12-11T09:34:16.071Z,-1.58
2022-12-11T09:36:45.449Z,-1.58
2022-12-11T09:39:15.803Z,-1.56
2022-12-11T09:41:54.489Z,-1.60
2022-12-11T09:44:34.286Z,-1.57
2022-12-11T09:47:15.435Z,-1.56
2022-12-11T09:49:49.174Z,-1.58
2022-12-11T09:52:21.890Z,-1.61
2022-12-11T09:54:54.189Z,-1.60
2022-12-11T09:57:35.422Z,-1.59
2022-12-11T10:00:26.029Z,-1.59
2022-12-11T10:03:23.145Z,-1.61
2022-12-11T10:06:04.555Z,-1.62
2022-12-11T10:08:43.468Z,-1.62
2022-12-11T10:11:32.202Z,-1.63
2022-12-11T10:14:10.122Z,-1.64
2022-12-11T10:16:46.962Z,-1.64
2022-12-11T10:19:20.983Z,-1.61
2022-12-11T10:21:51.914Z,-1.63
2022-12-11T10:24:57.866Z,-1.61
2022-12-11T10:27:26.856Z,-1.62
2022-12-11T10:30:02.504Z,-1.64
2022-12-11T10:32:42.792Z,-1.60
2022-12-11T10:35:20.728Z,-1.58
2022-12-11T10:37:49.966Z,-1.63
2022-12-11T10:40:22.008Z,-1.64
2022-12-11T10:42:55.375Z,-1.75
2022-12-11T10:45:24.583Z,-1.77
2022-12-11T10:48:04.556Z,-1.82
2022-12-11T10:50:35.147Z,-1.80
2022-12-11T10:53:04.233Z,-1.81
2022-12-11T10:55:45.773Z,-1.79
2022-12-11T10:58:21.570Z,-1.79
2022-12-11T11:01:04.056Z,-1.79
2022-12-11T11:03:35.710Z,-1.82
2022-12-11T11:06:15.427Z,-1.81
2022-12-11T11:08:45.794Z,-1.83
2022-12-11T11:11:28.239Z,-1.91
2022-12-11T11:14:18.816Z,-1.90
2022-12-11T11:16:50.387Z,-1.90
2022-12-11T11:19:23.645Z,-1.91
2022-12-11T11:21:56.667Z,-1.88
2022-12-11T11:24:34.790Z,-1.89
2022-12-11T11:27:13.282Z,-1.87
2022-12-11T11:29:45.788Z,-1.92
2022-12-11T11:32:20.805Z,-1.91
2022-12-11T11:34:49.782Z,-1.94
2022-12-11T11:37:31.788Z,-1.95
2022-12-11T11:40:08.577Z,-2.00
2022-12-11T11:42:48.013Z,-1.99
2022-12-11T11:45:23.051Z,-2.01
2022-12-11T11:48:00.211Z,-2.00
2022-12-11T11:50:35.938Z,-2.05
2022-12-11T11:53:11.937Z,-2.06
2022-12-11T11:55:51.441Z,-2.08
2022-12-11T11:58:24.490Z,-2.04
2022-12-11T12:00:56.499Z,-2.04
2022-12-11T12:03:27.058Z,-2.03
2022-12-11T12:06:05.808Z,-2.11
2022-12-11T12:08:43.844Z,-2.09
2022-12-11T12:11:26.093Z,-2.12
2022-12-11T12:14:29.115Z,-2.13
2022-12-11T12:17:13.550Z,-2.13
2022-12-11T12:19:50.098Z,-2.16
2022-12-11T12:22:34.263Z,-2.17
2022-12-11T12:25:18.585Z,-2.19
2022-12-11T12:27:59.008Z,-2.21
2022-12-11T12:30:33.066Z,-2.25
2022-12-11T12:33:21.610Z,-2.21
2022-12-11T12:36:06.585Z,-2.21
2022-12-11T12:38:47.224Z,-2.26
2022-12-11T12:41:23.695Z,-2.28
2022-12-11T12:44:13.884Z,-2.30
2022-12-11T12:46:54.234Z,-2.33
2022-12-11T12:49:42.215Z,-2.36
2022-12-11T12:52:16.976Z,-2.34
2022-12-11T12:55:09.370Z,-2.33
2022-12-11T12:57:43.101Z,-2.36
2022-12-11T13:00:13.712Z,-2.38
2022-12-11T13:02:51.440Z,-2.35
2022-12-11T13:05:24.305Z,-2.37
2022-12-11T13:07:56.796Z,-2.39
2022-12-11T13:10:33.109Z,-2.40
2022-12-11T13:13:06.243Z,-2.40
2022-12-11T13:15:39.164Z,-2.43
2022-12-11T13:18:33.474Z,-2.40
2022-12-11T13:21:03.598Z,-2.39
2022-12-11T13:23:34.141Z,-2.42
2022-12-11T13:26:05.788Z,-2.45
2022-12-11T13:28:51.216Z,-2.45
2022-12-11T13:31:36.762Z,-2.45
2022-12-11T13:34:09.973Z,-2.42
2022-12-11T13:36:41.422Z,-2.43
2022-12-11T13:39:18.763Z,-2.42
2022-12-11T13:41:51.705Z,-2.43
2022-12-11T13:44:27.273Z,-2.41
2022-12-11T13:46:59.316Z,-2.41
2022-12-11T13:49:34.003Z,-2.37
2022-12-11T13:52:03.958Z,-2.35
2022-12-11T13:54:36.442Z,-2.32
2022-12-11T13:57:17.305Z,-2.34
2022-12-11T13:59:53.271Z,-2.32
2022-12-11T14:02:26.672Z,-2.31
2022-12-11T14:04:59.640Z,-2.26
2022-12-11T14:07:32.999Z,-2.27
2022-12-11T14:10:06.674Z,-2.29
2022-12-11T14:12:35.843Z,-2.30
2022-12-11T14:15:07.413Z,-2.31
2022-12-11T14:17:36.639Z,-2.32
2022-12-11T14:20:08.597Z,-2.31
2022-12-11T14:22:37.800Z,-2.32
2022-12-11T14:25:21.849Z,-2.28
2022-12-11T14:27:52.667Z,-2.32
2022-12-11T14:30:25.668Z,-2.29
2022-12-11T14:32:58.936Z,-2.31
2022-12-11T14:35:37.219Z,-2.31
2022-12-11T14:38:15.175Z,-2.30
2022-12-11T14:40:46.647Z,-2.26
2022-12-11T14:43:23.486Z,-2.28
2022-12-11T14:45:59.237Z,-2.27
2022-12-11T14:48:33.997Z,-2.31
2022-12-11T14:51:06.778Z,-2.24
2022-12-11T14:53:39.803Z,-2.27
2022-12-11T14:56:17.229Z,-2.27
2022-12-11T14:58:50.952Z,-2.22
2022-12-11T15:01:27.474Z,-2.18
2022-12-11T15:04:08.365Z,-2.13
2022-12-11T15:06:45.303Z,-2.09
2022-12-11T15:09:22.748Z,-2.04
2022-12-11T15:11:53.948Z,-2.04
2022-12-11T15:14:25.168Z,-2.03
2022-12-11T15:16:58.595Z,-2.01
2022-12-11T15:19:32.738Z,-2.00
2022-12-11T15:22:07.491Z,-1.98
2022-12-11T15:24:40.139Z,-1.96
2022-12-11T15:27:27.001Z,-1.96
2022-12-11T15:29:56.943Z,-1.92
2022-12-11T15:32:27.946Z,-1.92
2022-12-11T15:34:58.768Z,-1.93
2022-12-11T15:37:29.399Z,-1.95
2022-12-11T15:40:00.057Z,-1.92
2022-12-11T15:42:33.202Z,-1.96
2022-12-11T15:45:03.182Z,-1.96
2022-12-11T15:47:35.317Z,-1.95
2022-12-11T15:50:14.636Z,-1.93
2022-12-11T15:52:43.757Z,-1.96
2022-12-11T15:55:13.118Z,-1.94
2022-12-11T15:57:46.776Z,-1.97
2022-12-11T16:00:17.002Z,-1.94
2022-12-11T16:02:48.402Z,-1.93
2022-12-11T16:05:17.957Z,-1.97
2022-12-11T16:07:47.118Z,-1.96
2022-12-11T16:10:19.756Z,-1.97
2022-12-11T16:12:49.127Z,-1.96
2022-12-11T16:15:24.066Z,-1.97
2022-12-11T16:18:03.182Z,-1.98
2022-12-11T16:20:32.665Z,-1.99
2022-12-11T16:23:02.001Z,-1.99
2022-12-11T16:25:31.928Z,-1.97
2022-12-11T16:28:02.839Z,-1.91
2022-12-11T16:30:32.147Z,-1.89
2022-12-11T16:33:07.105Z,-1.85
2022-12-11T16:35:39.525Z,-1.83
2022-12-11T16:38:10.136Z,-1.80
2022-12-11T16:40:39.442Z,-1.79
2022-12-11T16:43:08.472Z,-1.79
2022-12-11T16:45:37.608Z,-1.73
2022-12-11T16:48:08.252Z,-1.73
2022-12-11T16:50:37.536Z,-1.73
2022-12-11T16:53:06.613Z,-1.67
2022-12-11T16:55:36.006Z,-1.67
2022-12-11T16:58:06.182Z,-1.66
2022-12-11T17:00:35.525Z,-1.62
2022-12-11T17:03:04.931Z,-1.56
2022-12-11T17:05:35.577Z,-1.53
2022-12-11T17:08:04.791Z,-1.52
2022-12-11T17:10:34.980Z,-1.51
2022-12-11T17:13:04.253Z,-1.48
2022-12-11T17:15:33.615Z,-1.47
2022-12-11T17:18:03.010Z,-1.48
2022-12-11T17:20:32.228Z,-1.47
2022-12-11T17:23:05.090Z,-1.45
2022-12-11T17:25:34.413Z,-1.39
2022-12-11T17:28:03.609Z,-1.35
2022-12-11T17:30:33.154Z,-1.32
2022-12-11T17:33:03.031Z,-1.34
2022-12-11T17:35:33.833Z,-1.36
2022-12-11T17:38:04.523Z,-1.38
2022-12-11T17:40:33.596Z,-1.33
2022-12-11T17:43:06.502Z,-1.31
2022-12-11T17:45:35.718Z,-1.35
2022-12-11T17:48:04.996Z,-1.33
2022-12-11T17:50:41.245Z,-1.30
2022-12-11T17:53:13.182Z,-1.28
2022-12-11T17:55:43.781Z,-1.22
2022-12-11T17:58:14.430Z,-1.28
2022-12-11T18:00:45.290Z,-1.31
2022-12-11T18:03:16.972Z,-1.27
2022-12-11T18:05:48.571Z,-1.29
2022-12-11T18:08:21.174Z,-1.29
2022-12-11T18:10:50.680Z,-1.30
2022-12-11T18:13:20.476Z,-1.28
2022-12-11T18:16:01.044Z,-1.26
2022-12-11T18:18:30.423Z,-1.24
2022-12-11T18:20:59.596Z,-1.25
2022-12-11T18:23:30.458Z,-1.24
2022-12-11T18:26:00.467Z,-1.23
2022-12-11T18:28:34.888Z,-1.20
2022-12-11T18:31:05.296Z,-1.16
2022-12-11T18:33:37.626Z,-1.18
2022-12-11T18:36:07.624Z,-1.15
2022-12-11T18:38:39.459Z,-1.15
2022-12-11T18:41:11.720Z,-1.16
2022-12-11T18:43:43.363Z,-1.15
2022-12-11T18:46:14.985Z,-1.13
2022-12-11T18:48:45.969Z,-1.13
2022-12-11T18:51:18.600Z,-1.08
2022-12-11T18:53:49.044Z,-1.12
2022-12-11T18:56:21.059Z,-1.13
2022-12-11T18:58:52.735Z,-1.14
2022-12-11T19:01:23.959Z,-1.15
2022-12-11T19:04:00.644Z,-1.13
2022-12-11T19:06:35.458Z,-1.13
2022-12-11T19:09:07.754Z,-1.15
2022-12-11T19:11:40.124Z,-1.14
2022-12-11T19:14:10.757Z,-1.14
2022-12-11T19:16:42.547Z,-1.13
2022-12-11T19:19:15.458Z,-1.13
2022-12-11T19:21:45.753Z,-1.11
2022-12-11T19:24:18.558Z,-1.11
2022-12-11T19:26:48.280Z,-1.07
2022-12-11T19:29:22.353Z,-1.06
2022-12-11T19:31:52.097Z,-1.07
2022-12-11T19:34:21.459Z,-1.06
2022-12-11T19:36:51.319Z,-1.04
2022-12-11T19:39:22.181Z,-1.07
2022-12-11T19:41:51.592Z,-1.04
2022-12-11T19:44:25.063Z,-1.06
2022-12-11T19:46:58.147Z,-1.04
2022-12-11T19:49:27.490Z,-1.06
2022-12-11T19:51:56.481Z,-1.05
2022-12-11T19:54:27.092Z,-1.05
2022-12-11T19:56:56.828Z,-1.06
2022-12-11T19:59:25.826Z,-1.06
2022-12-11T20:01:54.912Z,-1.06
2022-12-11T20:04:23.954Z,-1.06
2022-12-11T20:06:54.307Z,-1.06
2022-12-11T20:09:24.490Z,-1.07
2022-12-11T20:11:55.501Z,-1.02
2022-12-11T20:14:27.482Z,-1.04
2022-12-11T20:17:15.009Z,-1.05
2022-12-11T20:19:44.800Z,-1.03
2022-12-11T20:22:13.872Z,-1.02
2022-12-11T20:24:43.008Z,-1.01
2022-12-11T20:27:13.802Z,-1.01
2022-12-11T20:29:43.021Z,-0.99
2022-12-11T20:32:12.480Z,-1.01
2022-12-11T20:34:42.305Z,-0.95
2022-12-11T20:37:11.517Z,-0.95
2022-12-11T20:39:40.717Z,-0.96
2022-12-11T20:42:11.180Z,-0.90
2022-12-11T20:44:47.316Z,-0.93
2022-12-11T20:47:19.755Z,-0.94
2022-12-11T20:49:49.374Z,-0.97
2022-12-11T20:52:19.323Z,-0.92
2022-12-11T20:54:48.638Z,-0.92
2022-12-11T20:57:18.033Z,-0.89
2022-12-11T20:59:49.615Z,-0.90
2022-12-11T21:02:18.587Z,-0.90
2022-12-11T21:04:47.579Z,-0.91
2022-12-11T21:07:16.459Z,-0.91
2022-12-11T21:09:45.384Z,-0.88
2022-12-11T21:12:14.407Z,-0.88
2022-12-11T21:14:43.900Z,-0.87
2022-12-11T21:17:14.248Z,-0.87
2022-12-11T21:19:43.185Z,-0.84
2022-12-11T21:22:12.145Z,-0.83
2022-12-11T21:24:41.755Z,-0.82
2022-12-11T21:27:10.837Z,-0.83
2022-12-11T21:29:39.783Z,-0.85
2022-12-11T21:32:08.949Z,-0.83
2022-12-11T21:34:39.517Z,-0.80
2022-12-11T21:37:08.744Z,-0.78
2022-12-11T21:39:39.541Z,-0.79
2022-12-11T21:42:08.719Z,-0.79
2022-12-11T21:47:27.745Z,-0.73
2022-12-11T21:49:58.139Z,-0.70
2022-12-11T21:52:27.082Z,-0.67
2022-12-11T21:54:56.682Z,-0.67
2022-12-11T21:57:26.867Z,-0.65
2022-12-11T21:59:56.048Z,-0.65
2022-12-11T22:02:25.026Z,-0.62
2022-12-11T22:04:54.017Z,-0.59
2022-12-11T22:07:25.545Z,-0.53
2022-12-11T22:09:54.458Z,-0.46
2022-12-11T22:12:25.656Z,-0.42
2022-12-11T22:14:54.891Z,-0.42
2022-12-11T22:17:23.964Z,-0.42
2022-12-11T22:19:52.970Z,-0.43
2022-12-11T22:22:22.327Z,-0.38
2022-12-11T22:24:52.734Z,-0.38
2022-12-11T22:27:23.850Z,-0.38
2022-12-11T22:29:53.039Z,-0.34
2022-12-11T22:32:21.956Z,-0.32
2022-12-11T22:34:50.988Z,-0.27
2022-12-11T22:37:20.456Z,-0.24
2022-12-11T22:39:49.788Z,-0.22
2022-12-11T22:42:20.155Z,-0.21
2022-12-11T22:44:49.512Z,-0.21
2022-12-11T22:47:18.525Z,-0.19
2022-12-11T22:49:48.181Z,-0.20
2022-12-11T22:52:17.089Z,-0.14
2022-12-11T22:54:46.245Z,-0.13
2022-12-11T22:57:15.290Z,-0.11
2022-12-11T22:59:45.694Z,-0.09
2022-12-11T23:02:14.809Z,-0.09
2022-12-11T23:04:43.767Z,-0.04
2022-12-11T23:07:12.797Z,-0.04
2022-12-11T23:09:41.951Z,-0.07
2022-12-11T23:12:10.863Z,-0.04
2022-12-11T23:14:39.886Z,-0.02
2022-12-11T23:17:10.206Z,0.00
2022-12-11T23:19:39.169Z,0.01
2022-12-11T23:22:08.163Z,0.01
2022-12-11T23:24:37.251Z,0.04
2022-12-11T23:27:06.347Z,0.06
2022-12-11T23:29:35.446Z,0.09
2022-12-11T23:32:04.713Z,0.08
2022-12-11T23:34:35.024Z,0.12
2022-12-11T23:37:03.924Z,0.16
2022-12-11T23:39:33.516Z,0.17
2022-12-11T23:42:02.492Z,0.19
2022-12-11T23:44:31.520Z,0.24
2022-12-11T23:47:00.727Z,0.20
2022-12-11T23:49:30.188Z,0.21
2022-12-11T23:52:00.476Z,0.22
2022-12-11T23:54:29.474Z,0.28
2022-12-11T23:56:58.559Z,0.28
2022-12-11T23:59:27.484Z,0.30
